sensor_id;sensor_type;location;lat;lon;timestamp;P1;durP1;ratioP1;P2;durP2;ratioP2
35757;SDS011;21879;50.110;18.900;2023-04-03T00:05:39;8.50;;;4.80;;
35757;SDS011;21879;50.110;18.900;2023-04-03T00:16:06;9.10;;;5.60;;
35757;SDS011;21879;50.110;18.900;2023-04-03T00:26:33;6.50;;;3.60;;
35757;SDS011;21879;50.110;18.900;2023-04-03T00:36:59;6.60;;;4.10;;
35757;SDS011;21879;50.110;18.900;2023-04-03T00:47:25;8.10;;;5.00;;
35757;SDS011;21879;50.110;18.900;2023-04-03T00:57:51;6.50;;;3.90;;
35757;SDS011;21879;50.110;18.900;2023-04-03T01:08:18;6.60;;;3.50;;
35757;SDS011;21879;50.110;18.900;2023-04-03T01:18:44;7.50;;;4.10;;
35757;SDS011;21879;50.110;18.900;2023-04-03T01:29:11;7.30;;;4.90;;
35757;SDS011;21879;50.110;18.900;2023-04-03T01:39:36;8.80;;;5.40;;
35757;SDS011;21879;50.110;18.900;2023-04-03T01:50:03;9.40;;;6.20;;
35757;SDS011;21879;50.110;18.900;2023-04-03T02:00:29;9.30;;;5.70;;
35757;SDS011;21879;50.110;18.900;2023-04-03T02:10:55;8.00;;;5.20;;
35757;SDS011;21879;50.110;18.900;2023-04-03T02:21:21;12.40;;;6.30;;
35757;SDS011;21879;50.110;18.900;2023-04-03T02:31:47;8.20;;;5.10;;
35757;SDS011;21879;50.110;18.900;2023-04-03T02:42:13;6.60;;;4.40;;
35757;SDS011;21879;50.110;18.900;2023-04-03T02:52:39;9.30;;;5.10;;
35757;SDS011;21879;50.110;18.900;2023-04-03T03:03:05;6.50;;;3.90;;
35757;SDS011;21879;50.110;18.900;2023-04-03T03:13:31;8.40;;;4.90;;
35757;SDS011;21879;50.110;18.900;2023-04-03T03:23:57;8.30;;;5.40;;
35757;SDS011;21879;50.110;18.900;2023-04-03T03:34:23;9.70;;;4.70;;
35757;SDS011;21879;50.110;18.900;2023-04-03T03:44:58;10.10;;;5.60;;
35757;SDS011;21879;50.110;18.900;2023-04-03T03:55:24;7.80;;;5.00;;
35757;SDS011;21879;50.110;18.900;2023-04-03T04:05:51;9.00;;;4.90;;
35757;SDS011;21879;50.110;18.900;2023-04-03T04:16:17;10.40;;;4.50;;
35757;SDS011;21879;50.110;18.900;2023-04-03T04:26:43;8.30;;;4.00;;
35757;SDS011;21879;50.110;18.900;2023-04-03T04:37:10;6.80;;;4.10;;
35757;SDS011;21879;50.110;18.900;2023-04-03T04:47:36;10.10;;;4.60;;
35757;SDS011;21879;50.110;18.900;2023-04-03T04:58:02;8.10;;;3.10;;
35757;SDS011;21879;50.110;18.900;2023-04-03T05:08:27;5.60;;;2.90;;
35757;SDS011;21879;50.110;18.900;2023-04-03T05:18:54;8.50;;;4.30;;
35757;SDS011;21879;50.110;18.900;2023-04-03T05:29:19;7.10;;;3.20;;
35757;SDS011;21879;50.110;18.900;2023-04-03T05:39:46;8.70;;;4.20;;
35757;SDS011;21879;50.110;18.900;2023-04-03T05:50:12;5.90;;;3.00;;
35757;SDS011;21879;50.110;18.900;2023-04-03T06:00:39;7.00;;;3.00;;
35757;SDS011;21879;50.110;18.900;2023-04-03T06:11:05;6.10;;;3.20;;
35757;SDS011;21879;50.110;18.900;2023-04-03T06:21:32;9.90;;;4.50;;
35757;SDS011;21879;50.110;18.900;2023-04-03T06:31:58;7.00;;;4.40;;
35757;SDS011;21879;50.110;18.900;2023-04-03T06:42:24;13.00;;;6.10;;
35757;SDS011;21879;50.110;18.900;2023-04-03T06:52:50;8.50;;;3.90;;
35757;SDS011;21879;50.110;18.900;2023-04-03T07:03:16;8.20;;;3.70;;
35757;SDS011;21879;50.110;18.900;2023-04-03T07:13:41;7.90;;;4.20;;
35757;SDS011;21879;50.110;18.900;2023-04-03T07:24:07;6.50;;;3.50;;
35757;SDS011;21879;50.110;18.900;2023-04-03T07:34:38;8.50;;;3.40;;
35757;SDS011;21879;50.110;18.900;2023-04-03T07:45:04;5.80;;;3.10;;
35757;SDS011;21879;50.110;18.900;2023-04-03T07:55:31;8.20;;;3.90;;
35757;SDS011;21879;50.110;18.900;2023-04-03T08:06:02;7.10;;;3.00;;
35757;SDS011;21879;50.110;18.900;2023-04-03T08:16:37;10.00;;;2.80;;
35757;SDS011;21879;50.110;18.900;2023-04-03T08:27:03;6.90;;;2.40;;
35757;SDS011;21879;50.110;18.900;2023-04-03T08:37:28;4.90;;;2.30;;
35757;SDS011;21879;50.110;18.900;2023-04-03T08:47:58;3.10;;;1.30;;
35757;SDS011;21879;50.110;18.900;2023-04-03T08:58:29;3.10;;;1.80;;
35757;SDS011;21879;50.110;18.900;2023-04-03T09:09:05;3.70;;;1.50;;
35757;SDS011;21879;50.110;18.900;2023-04-03T09:19:40;2.90;;;1.40;;
35757;SDS011;21879;50.110;18.900;2023-04-03T09:40:42;3.70;;;1.20;;
35757;SDS011;21879;50.110;18.900;2023-04-03T09:51:09;5.00;;;2.30;;
35757;SDS011;21879;50.110;18.900;2023-04-03T10:01:41;3.80;;;1.20;;
35757;SDS011;21879;50.110;18.900;2023-04-03T10:12:20;8.00;;;4.20;;
35757;SDS011;21879;50.110;18.900;2023-04-03T10:22:48;5.00;;;1.40;;
35757;SDS011;21879;50.110;18.900;2023-04-03T11:05:04;2.00;;;1.10;;
35757;SDS011;21879;50.110;18.900;2023-04-03T11:15:40;4.20;;;3.10;;
35757;SDS011;21879;50.110;18.900;2023-04-03T11:26:11;3.50;;;1.90;;
35757;SDS011;21879;50.110;18.900;2023-04-03T11:36:39;5.70;;;1.70;;
35757;SDS011;21879;50.110;18.900;2023-04-03T11:47:10;2.80;;;1.50;;
35757;SDS011;21879;50.110;18.900;2023-04-03T11:58:11;3.50;;;0.80;;
35757;SDS011;21879;50.110;18.900;2023-04-03T12:08:44;2.90;;;1.00;;
35757;SDS011;21879;50.110;18.900;2023-04-03T12:30:12;5.30;;;1.30;;
35757;SDS011;21879;50.110;18.900;2023-04-03T12:40:45;3.50;;;1.10;;
35757;SDS011;21879;50.110;18.900;2023-04-03T12:51:17;2.60;;;1.30;;
35757;SDS011;21879;50.110;18.900;2023-04-03T13:01:52;2.70;;;1.00;;
35757;SDS011;21879;50.110;18.900;2023-04-03T13:12:22;3.60;;;1.80;;
35757;SDS011;21879;50.110;18.900;2023-04-03T13:22:49;3.60;;;1.80;;
35757;SDS011;21879;50.110;18.900;2023-04-03T13:33:22;3.50;;;1.90;;
35757;SDS011;21879;50.110;18.900;2023-04-03T13:43:50;3.20;;;1.40;;
35757;SDS011;21879;50.110;18.900;2023-04-03T13:54:31;3.90;;;2.00;;
35757;SDS011;21879;50.110;18.900;2023-04-03T14:04:59;4.10;;;2.20;;
35757;SDS011;21879;50.110;18.900;2023-04-03T14:15:27;6.10;;;2.60;;
35757;SDS011;21879;50.110;18.900;2023-04-03T14:25:55;3.70;;;1.70;;
35757;SDS011;21879;50.110;18.900;2023-04-03T14:36:22;3.90;;;1.90;;
35757;SDS011;21879;50.110;18.900;2023-04-03T14:46:50;4.80;;;1.90;;
35757;SDS011;21879;50.110;18.900;2023-04-03T14:57:19;3.10;;;1.60;;
35757;SDS011;21879;50.110;18.900;2023-04-03T15:07:49;3.70;;;1.60;;
35757;SDS011;21879;50.110;18.900;2023-04-03T15:18:17;5.40;;;2.20;;
35757;SDS011;21879;50.110;18.900;2023-04-03T15:28:46;4.90;;;2.20;;
35757;SDS011;21879;50.110;18.900;2023-04-03T15:39:12;7.00;;;2.90;;
35757;SDS011;21879;50.110;18.900;2023-04-03T15:49:39;5.80;;;2.40;;
35757;SDS011;21879;50.110;18.900;2023-04-03T16:00:07;4.00;;;2.20;;
35757;SDS011;21879;50.110;18.900;2023-04-03T16:10:35;9.30;;;2.00;;
35757;SDS011;21879;50.110;18.900;2023-04-03T16:21:02;4.20;;;2.00;;
35757;SDS011;21879;50.110;18.900;2023-04-03T16:31:31;6.20;;;3.20;;
35757;SDS011;21879;50.110;18.900;2023-04-03T16:41:57;5.60;;;2.90;;
35757;SDS011;21879;50.110;18.900;2023-04-03T16:52:23;4.20;;;2.00;;
35757;SDS011;21879;50.110;18.900;2023-04-03T17:02:49;2.90;;;1.50;;
35757;SDS011;21879;50.110;18.900;2023-04-03T17:13:15;6.40;;;2.90;;
35757;SDS011;21879;50.110;18.900;2023-04-03T17:23:42;10.50;;;4.20;;
35757;SDS011;21879;50.110;18.900;2023-04-03T17:34:10;4.80;;;1.90;;
35757;SDS011;21879;50.110;18.900;2023-04-03T17:44:37;5.20;;;3.40;;
35757;SDS011;21879;50.110;18.900;2023-04-03T17:55:03;3.30;;;2.10;;
35757;SDS011;21879;50.110;18.900;2023-04-03T18:05:30;4.50;;;2.50;;
35757;SDS011;21879;50.110;18.900;2023-04-03T18:15:56;5.20;;;2.60;;
35757;SDS011;21879;50.110;18.900;2023-04-03T18:26:23;8.10;;;4.00;;
35757;SDS011;21879;50.110;18.900;2023-04-03T18:36:50;8.00;;;3.60;;
35757;SDS011;21879;50.110;18.900;2023-04-03T18:47:17;6.80;;;3.50;;
35757;SDS011;21879;50.110;18.900;2023-04-03T18:57:44;9.00;;;4.50;;
35757;SDS011;21879;50.110;18.900;2023-04-03T19:08:11;10.20;;;5.50;;
35757;SDS011;21879;50.110;18.900;2023-04-03T19:18:37;6.20;;;3.90;;
35757;SDS011;21879;50.110;18.900;2023-04-03T19:29:03;8.70;;;4.60;;
35757;SDS011;21879;50.110;18.900;2023-04-03T19:39:29;7.90;;;4.20;;
35757;SDS011;21879;50.110;18.900;2023-04-03T19:49:57;7.20;;;3.80;;
35757;SDS011;21879;50.110;18.900;2023-04-03T20:00:23;14.40;;;6.00;;
35757;SDS011;21879;50.110;18.900;2023-04-03T20:10:49;13.00;;;7.10;;
35757;SDS011;21879;50.110;18.900;2023-04-03T20:21:15;9.50;;;5.30;;
35757;SDS011;21879;50.110;18.900;2023-04-03T20:31:41;12.50;;;5.10;;
35757;SDS011;21879;50.110;18.900;2023-04-03T20:42:09;11.40;;;4.50;;
35757;SDS011;21879;50.110;18.900;2023-04-03T20:52:34;15.00;;;5.10;;
35757;SDS011;21879;50.110;18.900;2023-04-03T21:03:00;10.80;;;5.60;;
35757;SDS011;21879;50.110;18.900;2023-04-03T21:24:29;13.30;;;6.30;;
35757;SDS011;21879;50.110;18.900;2023-04-03T21:34:54;14.10;;;8.00;;
35757;SDS011;21879;50.110;18.900;2023-04-03T21:45:20;10.80;;;6.70;;
35757;SDS011;21879;50.110;18.900;2023-04-03T21:55:52;9.80;;;5.00;;
35757;SDS011;21879;50.110;18.900;2023-04-03T22:06:19;12.60;;;6.20;;
35757;SDS011;21879;50.110;18.900;2023-04-03T22:16:45;11.30;;;5.40;;
35757;SDS011;21879;50.110;18.900;2023-04-03T22:27:11;10.00;;;4.90;;
35757;SDS011;21879;50.110;18.900;2023-04-03T22:37:37;12.30;;;6.70;;
35757;SDS011;21879;50.110;18.900;2023-04-03T22:48:03;11.40;;;6.00;;
35757;SDS011;21879;50.110;18.900;2023-04-03T22:58:30;11.20;;;6.40;;
35757;SDS011;21879;50.110;18.900;2023-04-03T23:08:56;10.30;;;5.10;;
35757;SDS011;21879;50.110;18.900;2023-04-03T23:19:22;12.70;;;5.40;;
35757;SDS011;21879;50.110;18.900;2023-04-03T23:29:47;9.90;;;4.30;;
35757;SDS011;21879;50.110;18.900;2023-04-03T23:40:14;9.70;;;5.20;;
35757;SDS011;21879;50.110;18.900;2023-04-03T23:50:41;8.70;;;5.20;;
